createdAt,value
2022-08-17T00:00:18.000Z,18.00
2022-08-17T00:01:18.000Z,18.04
2022-08-17T00:02:18.000Z,18.04
2022-08-17T00:03:18.000Z,18.06
2022-08-17T00:04:18.000Z,18.03
2022-08-17T00:05:18.000Z,18.12
2022-08-17T00:06:18.000Z,18.12
2022-08-17T00:07:18.000Z,18.12
2022-08-17T00:08:18.000Z,18.17
2022-08-17T00:09:18.000Z,18.15
2022-08-17T00:10:19.000Z,18.17
2022-08-17T00:11:19.000Z,18.15
2022-08-17T00:11:19.000Z,18.15
2022-08-17T00:11:19.000Z,18.15
2022-08-17T00:12:19.000Z,18.09
2022-08-17T00:12:19.000Z,18.09
2022-08-17T00:12:19.000Z,18.09
2022-08-17T00:13:19.000Z,18.04
2022-08-17T00:13:19.000Z,18.04
2022-08-17T00:13:19.000Z,18.04
2022-08-17T00:14:19.000Z,17.97
2022-08-17T00:14:19.000Z,17.97
2022-08-17T00:14:19.000Z,17.97
2022-08-17T00:15:19.000Z,17.97
2022-08-17T00:15:19.000Z,17.97
2022-08-17T00:15:19.000Z,17.97
2022-08-17T00:16:19.000Z,17.92
2022-08-17T00:16:19.000Z,17.92
2022-08-17T00:17:19.000Z,17.87
2022-08-17T00:17:19.000Z,17.87
2022-08-17T00:18:19.000Z,17.85
2022-08-17T00:18:19.000Z,17.85
2022-08-17T00:19:19.000Z,17.81
2022-08-17T00:19:19.000Z,17.81
2022-08-17T00:20:19.000Z,17.74
2022-08-17T00:20:19.000Z,17.74
2022-08-17T00:21:19.000Z,17.69
2022-08-17T00:22:20.000Z,17.67
2022-08-17T00:23:20.000Z,17.66
2022-08-17T00:24:20.000Z,17.64
2022-08-17T00:25:20.000Z,17.59
2022-08-17T00:27:38.000Z,17.57
2022-08-17T00:27:38.000Z,17.51
2022-08-17T00:28:38.000Z,17.54
2022-08-17T00:29:38.000Z,17.53
2022-08-17T00:30:38.000Z,17.48
2022-08-17T00:31:38.000Z,17.48
2022-08-17T00:32:38.000Z,17.50
2022-08-17T00:33:38.000Z,17.50
2022-08-17T00:34:38.000Z,17.46
2022-08-17T00:35:38.000Z,17.46
2022-08-17T00:36:38.000Z,17.47
2022-08-17T00:37:38.000Z,17.47
2022-08-17T00:38:38.000Z,17.46
2022-08-17T00:39:38.000Z,17.46
2022-08-17T00:40:38.000Z,17.44
2022-08-17T00:41:38.000Z,17.41
2022-08-17T00:42:38.000Z,17.43
2022-08-17T00:43:38.000Z,17.41
2022-08-17T00:44:38.000Z,17.40
2022-08-17T00:45:38.000Z,17.41
2022-08-17T00:46:38.000Z,17.35
2022-08-17T00:47:38.000Z,17.35
2022-08-17T00:48:38.000Z,17.35
2022-08-17T00:49:38.000Z,17.33
2022-08-17T00:50:38.000Z,17.35
2022-08-17T00:51:38.000Z,17.35
2022-08-17T00:52:38.000Z,17.33
2022-08-17T00:53:38.000Z,17.36
2022-08-17T00:54:38.000Z,17.36
2022-08-17T00:55:38.000Z,17.36
2022-08-17T00:56:38.000Z,17.36
2022-08-17T00:57:38.000Z,17.40
2022-08-17T00:58:38.000Z,17.36
2022-08-17T00:59:38.000Z,17.43
2022-08-17T01:00:38.000Z,17.46
2022-08-17T01:01:38.000Z,17.50
2022-08-17T01:02:38.000Z,17.48
2022-08-17T01:03:38.000Z,17.50
2022-08-17T01:04:38.000Z,17.53
2022-08-17T01:05:38.000Z,17.54
2022-08-17T01:06:38.000Z,17.54
2022-08-17T01:07:38.000Z,17.59
2022-08-17T01:08:38.000Z,17.63
2022-08-17T01:09:38.000Z,17.55
2022-08-17T01:10:38.000Z,17.62
2022-08-17T01:11:38.000Z,17.63
2022-08-17T01:12:38.000Z,17.63
2022-08-17T01:13:38.000Z,17.63
2022-08-17T01:14:39.000Z,17.62
2022-08-17T01:15:39.000Z,17.63
2022-08-17T01:16:39.000Z,17.62
2022-08-17T01:17:39.000Z,17.59
2022-08-17T01:18:39.000Z,17.55
2022-08-17T01:19:39.000Z,17.55
2022-08-17T01:20:39.000Z,17.50
2022-08-17T01:21:39.000Z,17.46
2022-08-17T01:22:39.000Z,17.43
2022-08-17T01:23:39.000Z,17.36
2022-08-17T01:24:39.000Z,17.30
2022-08-17T01:25:39.000Z,17.28
2022-08-17T01:26:39.000Z,17.20
2022-08-17T01:27:39.000Z,17.15
2022-08-17T01:28:39.000Z,17.13
2022-08-17T01:29:39.000Z,17.06
2022-08-17T01:30:39.000Z,17.06
2022-08-17T01:31:39.000Z,17.06
2022-08-17T01:32:39.000Z,17.03
2022-08-17T01:33:39.000Z,17.03
2022-08-17T01:34:39.000Z,16.95
2022-08-17T01:35:39.000Z,16.99
2022-08-17T01:36:39.000Z,16.93
2022-08-17T01:37:39.000Z,16.95
2022-08-17T01:38:39.000Z,16.95
2022-08-17T01:39:39.000Z,16.98
2022-08-17T01:40:39.000Z,17.00
2022-08-17T01:41:39.000Z,17.04
2022-08-17T01:42:39.000Z,17.00
2022-08-17T01:43:39.000Z,17.03
2022-08-17T01:44:39.000Z,16.99
2022-08-17T01:45:39.000Z,17.00
2022-08-17T01:46:39.000Z,16.99
2022-08-17T01:47:39.000Z,17.00
2022-08-17T01:48:39.000Z,17.07
2022-08-17T01:49:39.000Z,17.08
2022-08-17T01:50:39.000Z,17.10
2022-08-17T01:51:39.000Z,17.11
2022-08-17T01:52:39.000Z,17.10
2022-08-17T01:53:39.000Z,17.10
2022-08-17T01:54:39.000Z,17.13
2022-08-17T01:55:39.000Z,17.15
2022-08-17T01:56:39.000Z,17.15
2022-08-17T01:57:39.000Z,17.18
2022-08-17T01:58:39.000Z,17.18
2022-08-17T01:59:39.000Z,17.22
2022-08-17T02:00:39.000Z,17.25
2022-08-17T02:01:39.000Z,17.29
2022-08-17T02:01:39.000Z,17.29
2022-08-17T02:02:39.000Z,17.29
2022-08-17T02:02:39.000Z,17.29
2022-08-17T02:03:39.000Z,17.32
2022-08-17T02:03:39.000Z,17.32
2022-08-17T02:04:39.000Z,17.23
2022-08-17T02:04:39.000Z,17.23
2022-08-17T02:05:39.000Z,17.18
2022-08-17T02:05:39.000Z,17.18
2022-08-17T02:06:39.000Z,17.14
2022-08-17T02:07:40.000Z,17.13
2022-08-17T02:08:40.000Z,17.08
2022-08-17T02:09:40.000Z,17.07
2022-08-17T02:10:40.000Z,17.08
2022-08-17T02:11:40.000Z,17.04
2022-08-17T02:12:40.000Z,16.98
2022-08-17T02:13:40.000Z,16.95
2022-08-17T02:14:40.000Z,16.93
2022-08-17T02:15:40.000Z,16.90
2022-08-17T02:16:40.000Z,16.86
2022-08-17T02:17:40.000Z,16.83
2022-08-17T02:18:40.000Z,16.77
2022-08-17T02:19:40.000Z,16.73
2022-08-17T02:20:40.000Z,16.67
2022-08-17T02:21:40.000Z,16.65
2022-08-17T02:22:40.000Z,16.63
2022-08-17T02:23:40.000Z,16.63
2022-08-17T02:24:40.000Z,16.58
2022-08-17T02:25:40.000Z,16.59
2022-08-17T02:26:40.000Z,16.56
2022-08-17T02:27:40.000Z,16.56
2022-08-17T02:28:40.000Z,16.52
2022-08-17T02:29:40.000Z,16.50
2022-08-17T02:30:40.000Z,16.53
2022-08-17T02:31:40.000Z,16.53
2022-08-17T02:32:40.000Z,16.53
2022-08-17T02:33:40.000Z,16.53
2022-08-17T02:34:40.000Z,16.58
2022-08-17T02:35:40.000Z,16.58
2022-08-17T02:36:40.000Z,16.55
2022-08-17T02:37:40.000Z,16.58
2022-08-17T02:38:40.000Z,16.55
2022-08-17T02:39:40.000Z,16.60
2022-08-17T02:40:40.000Z,16.63
2022-08-17T02:41:40.000Z,16.62
2022-08-17T02:42:40.000Z,16.63
2022-08-17T02:43:40.000Z,16.63
2022-08-17T02:44:40.000Z,16.70
2022-08-17T02:45:40.000Z,16.67
2022-08-17T02:46:40.000Z,16.70
2022-08-17T02:47:40.000Z,16.75
2022-08-17T02:48:40.000Z,16.74
2022-08-17T02:49:40.000Z,16.80
2022-08-17T02:50:40.000Z,16.78
2022-08-17T02:51:40.000Z,16.80
2022-08-17T02:52:40.000Z,16.78
2022-08-17T02:53:40.000Z,16.85
2022-08-17T02:54:41.000Z,16.80
2022-08-17T02:55:41.000Z,16.77
2022-08-17T02:56:41.000Z,16.73
2022-08-17T02:57:41.000Z,16.63
2022-08-17T02:58:41.000Z,16.55
2022-08-17T02:59:41.000Z,16.49
2022-08-17T03:00:41.000Z,16.50
2022-08-17T03:01:41.000Z,16.44
2022-08-17T03:02:41.000Z,16.44
2022-08-17T03:03:41.000Z,16.44
2022-08-17T03:04:41.000Z,16.42
2022-08-17T03:05:41.000Z,16.48
2022-08-17T03:06:41.000Z,16.42
2022-08-17T03:07:41.000Z,16.44
2022-08-17T03:08:41.000Z,16.42
2022-08-17T03:09:41.000Z,16.41
2022-08-17T03:10:41.000Z,16.41
2022-08-17T03:11:41.000Z,16.42
2022-08-17T03:12:41.000Z,16.49
2022-08-17T03:13:41.000Z,16.50
2022-08-17T03:14:41.000Z,16.50
2022-08-17T03:15:41.000Z,16.53
2022-08-17T03:16:41.000Z,16.53
2022-08-17T03:16:41.000Z,16.53
2022-08-17T03:17:41.000Z,16.56
2022-08-17T03:17:41.000Z,16.56
2022-08-17T03:18:41.000Z,16.60
2022-08-17T03:18:41.000Z,16.60
2022-08-17T03:19:41.000Z,16.62
2022-08-17T03:19:41.000Z,16.62
2022-08-17T03:20:41.000Z,16.60
2022-08-17T03:20:41.000Z,16.60
2022-08-17T03:21:41.000Z,16.62
2022-08-17T03:22:41.000Z,16.67
2022-08-17T03:23:41.000Z,16.67
2022-08-17T03:24:41.000Z,16.63
2022-08-17T03:25:41.000Z,16.63
2022-08-17T03:26:41.000Z,16.56
2022-08-17T03:27:41.000Z,16.58
2022-08-17T03:28:41.000Z,16.53
2022-08-17T03:29:41.000Z,16.50
2022-08-17T03:30:41.000Z,16.52
2022-08-17T03:31:41.000Z,16.49
2022-08-17T03:32:41.000Z,16.48
2022-08-17T03:33:41.000Z,16.50
2022-08-17T03:34:41.000Z,16.55
2022-08-17T03:35:41.000Z,16.58
2022-08-17T03:36:41.000Z,16.53
2022-08-17T03:37:42.000Z,16.56
2022-08-17T03:38:42.000Z,16.55
2022-08-17T03:39:42.000Z,16.56
2022-08-17T03:40:42.000Z,16.55
2022-08-17T03:41:42.000Z,16.59
2022-08-17T03:42:42.000Z,16.56
2022-08-17T03:43:42.000Z,16.58
2022-08-17T03:44:42.000Z,16.59
2022-08-17T03:45:42.000Z,16.59
2022-08-17T03:46:42.000Z,16.58
2022-08-17T03:47:42.000Z,16.56
2022-08-17T03:48:42.000Z,16.56
2022-08-17T03:49:42.000Z,16.55
2022-08-17T03:50:42.000Z,16.52
2022-08-17T03:51:42.000Z,16.50
2022-08-17T03:52:42.000Z,16.49
2022-08-17T03:53:42.000Z,16.45
2022-08-17T03:54:42.000Z,16.45
2022-08-17T03:55:42.000Z,16.44
2022-08-17T03:56:42.000Z,16.42
2022-08-17T03:57:42.000Z,16.42
2022-08-17T03:58:42.000Z,16.44
2022-08-17T03:59:42.000Z,16.41
2022-08-17T04:00:42.000Z,16.41
2022-08-17T04:01:42.000Z,16.41
2022-08-17T04:02:42.000Z,16.42
2022-08-17T04:03:42.000Z,16.37
2022-08-17T04:04:42.000Z,16.40
2022-08-17T04:05:42.000Z,16.44
2022-08-17T04:06:42.000Z,16.41
2022-08-17T04:07:42.000Z,16.42
2022-08-17T04:08:42.000Z,16.45
2022-08-17T04:09:42.000Z,16.45
2022-08-17T04:10:42.000Z,16.45
2022-08-17T04:11:42.000Z,16.49
2022-08-17T04:12:42.000Z,16.42
2022-08-17T04:13:42.000Z,16.48
2022-08-17T04:14:42.000Z,16.49
2022-08-17T04:15:42.000Z,16.55
2022-08-17T04:16:42.000Z,16.53
2022-08-17T04:17:42.000Z,16.55
2022-08-17T04:18:42.000Z,16.59
2022-08-17T04:19:42.000Z,16.60
2022-08-17T04:20:42.000Z,16.60
2022-08-17T04:21:43.000Z,16.60
2022-08-17T04:22:43.000Z,16.62
2022-08-17T04:23:43.000Z,16.70
2022-08-17T04:24:43.000Z,16.71
2022-08-17T04:25:43.000Z,16.74
2022-08-17T04:26:43.000Z,16.81
2022-08-17T04:27:43.000Z,16.81
2022-08-17T04:28:43.000Z,16.86
2022-08-17T04:29:43.000Z,16.90
2022-08-17T04:30:43.000Z,16.92
2022-08-17T04:31:43.000Z,16.95
2022-08-17T04:32:43.000Z,16.98
2022-08-17T04:33:43.000Z,17.06
2022-08-17T04:34:43.000Z,17.08
2022-08-17T04:35:43.000Z,17.13
2022-08-17T04:36:43.000Z,17.13
2022-08-17T04:37:43.000Z,17.15
2022-08-17T04:38:43.000Z,17.22
2022-08-17T04:39:43.000Z,17.28
2022-08-17T04:40:43.000Z,17.29
2022-08-17T04:41:43.000Z,17.38
2022-08-17T04:42:43.000Z,17.43
2022-08-17T04:43:43.000Z,17.41
2022-08-17T04:44:43.000Z,17.44
2022-08-17T04:45:43.000Z,17.48
2022-08-17T04:46:43.000Z,17.51
2022-08-17T04:46:43.000Z,17.51
2022-08-17T04:47:43.000Z,17.54
2022-08-17T04:47:43.000Z,17.54
2022-08-17T04:48:43.000Z,17.55
2022-08-17T04:48:43.000Z,17.55
2022-08-17T04:49:43.000Z,17.59
2022-08-17T04:49:43.000Z,17.59
2022-08-17T04:50:43.000Z,17.63
2022-08-17T04:50:43.000Z,17.63
2022-08-17T04:51:43.000Z,17.66
2022-08-17T04:52:43.000Z,17.73
2022-08-17T04:53:43.000Z,17.73
2022-08-17T04:54:43.000Z,17.79
2022-08-17T04:55:43.000Z,17.82
2022-08-17T04:56:43.000Z,17.88
2022-08-17T04:57:43.000Z,17.87
2022-08-17T04:58:43.000Z,17.87
2022-08-17T04:59:43.000Z,17.89
2022-08-17T05:00:43.000Z,17.94
2022-08-17T05:01:43.000Z,17.95
2022-08-17T05:02:43.000Z,17.97
2022-08-17T05:03:43.000Z,18.03
2022-08-17T05:04:43.000Z,17.99
2022-08-17T05:05:44.000Z,18.06
2022-08-17T05:06:44.000Z,18.06
2022-08-17T05:07:44.000Z,18.07
2022-08-17T05:08:44.000Z,18.12
2022-08-17T05:09:44.000Z,18.10
2022-08-17T05:10:44.000Z,18.15
2022-08-17T05:11:44.000Z,18.17
2022-08-17T05:12:44.000Z,18.19
2022-08-17T05:13:44.000Z,18.22
2022-08-17T05:14:44.000Z,18.25
2022-08-17T05:15:44.000Z,18.25
2022-08-17T05:16:44.000Z,18.28
2022-08-17T05:17:44.000Z,18.29
2022-08-17T05:18:44.000Z,18.33
2022-08-17T05:19:44.000Z,18.40
2022-08-17T05:20:44.000Z,18.40
2022-08-17T05:21:44.000Z,18.43
2022-08-17T05:22:44.000Z,18.44
2022-08-17T05:23:44.000Z,18.49
2022-08-17T05:24:44.000Z,18.50
2022-08-17T05:25:44.000Z,18.55
2022-08-17T05:26:44.000Z,18.58
2022-08-17T05:27:44.000Z,18.59
2022-08-17T05:28:44.000Z,18.65
2022-08-17T05:29:44.000Z,18.68
2022-08-17T05:30:44.000Z,18.72
2022-08-17T05:31:44.000Z,18.74
2022-08-17T05:32:44.000Z,18.77
2022-08-17T05:33:44.000Z,18.84
2022-08-17T05:34:44.000Z,18.86
2022-08-17T05:35:44.000Z,18.94
2022-08-17T05:36:44.000Z,18.97
2022-08-17T05:37:44.000Z,18.99
2022-08-17T05:38:44.000Z,19.02
2022-08-17T05:39:44.000Z,19.06
2022-08-17T05:40:44.000Z,19.13
2022-08-17T05:41:44.000Z,19.15
2022-08-17T05:42:44.000Z,19.20
2022-08-17T05:43:44.000Z,19.25
2022-08-17T05:44:44.000Z,19.35
2022-08-17T05:45:44.000Z,19.36
2022-08-17T05:46:44.000Z,19.38
2022-08-17T05:47:44.000Z,19.46
2022-08-17T05:48:44.000Z,19.48
2022-08-17T05:49:44.000Z,19.51
2022-08-17T05:50:44.000Z,19.60
2022-08-17T05:51:44.000Z,19.60
2022-08-17T05:52:44.000Z,19.69
2022-08-17T05:53:44.000Z,19.66
2022-08-17T05:54:44.000Z,19.70
2022-08-17T05:55:44.000Z,19.76
2022-08-17T05:56:44.000Z,19.83
2022-08-17T05:57:44.000Z,19.87
2022-08-17T05:58:44.000Z,19.93
2022-08-17T05:59:44.000Z,19.95
2022-08-17T06:00:44.000Z,20.03
2022-08-17T06:01:44.000Z,20.09
2022-08-17T06:02:44.000Z,20.13
2022-08-17T06:03:44.000Z,20.16
2022-08-17T06:04:44.000Z,20.24
2022-08-17T06:05:44.000Z,20.24
2022-08-17T06:06:44.000Z,20.27
2022-08-17T06:07:44.000Z,20.30
2022-08-17T06:08:44.000Z,20.33
2022-08-17T06:09:44.000Z,20.35
2022-08-17T06:10:44.000Z,20.35
2022-08-17T06:11:44.000Z,20.39
2022-08-17T06:12:44.000Z,20.43
2022-08-17T06:13:44.000Z,20.47
2022-08-17T06:14:44.000Z,20.47
2022-08-17T06:15:44.000Z,20.50
2022-08-17T06:16:44.000Z,20.51
2022-08-17T06:17:44.000Z,20.53
2022-08-17T06:18:44.000Z,20.56
2022-08-17T06:19:44.000Z,20.58
2022-08-17T06:20:44.000Z,20.59
2022-08-17T06:21:44.000Z,20.64
2022-08-17T06:22:44.000Z,20.64
2022-08-17T06:23:44.000Z,20.64
2022-08-17T06:24:44.000Z,20.65
2022-08-17T06:25:44.000Z,20.66
2022-08-17T06:26:44.000Z,20.69
2022-08-17T06:27:44.000Z,20.72
2022-08-17T06:28:44.000Z,20.77
2022-08-17T06:29:44.000Z,20.77
2022-08-17T06:30:44.000Z,20.80
2022-08-17T06:31:44.000Z,20.81
2022-08-17T06:32:44.000Z,20.86
2022-08-17T06:33:44.000Z,20.83
2022-08-17T06:34:44.000Z,20.87
2022-08-17T06:35:44.000Z,20.87
2022-08-17T06:36:44.000Z,20.86
2022-08-17T06:37:44.000Z,20.87
2022-08-17T06:38:44.000Z,20.86
2022-08-17T06:39:44.000Z,20.93
2022-08-17T06:40:44.000Z,20.96
2022-08-17T06:41:44.000Z,20.98
2022-08-17T06:42:44.000Z,21.01
2022-08-17T06:43:44.000Z,21.05
2022-08-17T06:44:44.000Z,21.09
2022-08-17T06:45:44.000Z,21.13
2022-08-17T06:46:44.000Z,21.16
2022-08-17T06:47:44.000Z,21.17
2022-08-17T06:48:44.000Z,21.23
2022-08-17T06:49:44.000Z,21.27
2022-08-17T06:50:44.000Z,21.27
2022-08-17T06:51:44.000Z,21.32
2022-08-17T06:52:44.000Z,21.38
2022-08-17T06:53:44.000Z,21.39
2022-08-17T06:54:43.000Z,21.42
2022-08-17T06:55:43.000Z,21.44
2022-08-17T06:56:43.000Z,21.44
2022-08-17T06:57:43.000Z,21.45
2022-08-17T06:58:43.000Z,21.54
2022-08-17T06:59:43.000Z,21.53
2022-08-17T07:00:43.000Z,21.56
2022-08-17T07:01:43.000Z,21.60
2022-08-17T07:02:43.000Z,21.61
2022-08-17T07:03:43.000Z,21.66
2022-08-17T07:04:43.000Z,21.71
2022-08-17T07:05:43.000Z,21.76
2022-08-17T07:06:43.000Z,21.79
2022-08-17T07:07:43.000Z,21.85
2022-08-17T07:08:43.000Z,21.90
2022-08-17T07:09:43.000Z,21.91
2022-08-17T07:10:43.000Z,21.95
2022-08-17T07:11:43.000Z,22.04
2022-08-17T07:12:43.000Z,22.04
2022-08-17T07:13:43.000Z,22.09
2022-08-17T07:14:43.000Z,22.16
2022-08-17T07:15:43.000Z,22.17
2022-08-17T07:16:43.000Z,22.22
2022-08-17T07:17:43.000Z,22.23
2022-08-17T07:18:43.000Z,22.25
2022-08-17T07:19:43.000Z,22.32
2022-08-17T07:20:43.000Z,22.38
2022-08-17T07:21:43.000Z,22.41
2022-08-17T07:22:43.000Z,22.44
2022-08-17T07:23:43.000Z,22.49
2022-08-17T07:24:43.000Z,22.50
2022-08-17T07:25:43.000Z,22.54
2022-08-17T07:26:43.000Z,22.64
2022-08-17T07:27:43.000Z,22.69
2022-08-17T07:28:43.000Z,22.80
2022-08-17T07:29:43.000Z,22.86
2022-08-17T07:30:43.000Z,22.94
2022-08-17T07:31:43.000Z,23.08
2022-08-17T07:32:43.000Z,23.12
2022-08-17T07:33:43.000Z,23.17
2022-08-17T07:34:43.000Z,23.26
2022-08-17T07:35:42.000Z,23.34
2022-08-17T07:36:42.000Z,23.39
2022-08-17T07:36:42.000Z,23.39
2022-08-17T07:37:42.000Z,23.40
2022-08-17T07:37:42.000Z,23.40
2022-08-17T07:38:42.000Z,23.47
2022-08-17T07:38:42.000Z,23.47
2022-08-17T07:39:42.000Z,23.55
2022-08-17T07:39:42.000Z,23.55
2022-08-17T07:40:42.000Z,23.64
2022-08-17T07:40:42.000Z,23.64
2022-08-17T07:41:42.000Z,23.68
2022-08-17T07:42:42.000Z,23.80
2022-08-17T07:43:42.000Z,23.87
2022-08-17T07:44:42.000Z,23.97
2022-08-17T07:45:42.000Z,24.02
2022-08-17T07:46:42.000Z,24.05
2022-08-17T07:47:42.000Z,24.12
2022-08-17T07:48:42.000Z,24.20
2022-08-17T07:49:42.000Z,24.23
2022-08-17T07:50:42.000Z,24.27
2022-08-17T07:51:42.000Z,24.32
2022-08-17T07:52:42.000Z,24.37
2022-08-17T07:53:42.000Z,24.47
2022-08-17T07:54:42.000Z,24.52
2022-08-17T07:55:42.000Z,24.56
2022-08-17T07:56:42.000Z,24.61
2022-08-17T07:56:42.000Z,24.61
2022-08-17T07:57:42.000Z,24.67
2022-08-17T07:57:42.000Z,24.67
2022-08-17T07:58:42.000Z,24.71
2022-08-17T07:58:42.000Z,24.71
2022-08-17T07:59:42.000Z,24.76
2022-08-17T07:59:42.000Z,24.76
2022-08-17T08:00:42.000Z,24.80
2022-08-17T08:00:42.000Z,24.80
2022-08-17T08:01:42.000Z,24.83
2022-08-17T08:02:41.000Z,24.91
2022-08-17T08:03:41.000Z,24.92
2022-08-17T08:04:41.000Z,24.92
2022-08-17T08:05:41.000Z,24.98
2022-08-17T08:06:41.000Z,25.00
2022-08-17T08:07:41.000Z,25.09
2022-08-17T08:08:41.000Z,25.12
2022-08-17T08:09:41.000Z,25.15
2022-08-17T08:10:41.000Z,25.19
2022-08-17T08:11:41.000Z,25.24
2022-08-17T08:12:41.000Z,25.28
2022-08-17T08:13:41.000Z,25.30
2022-08-17T08:14:41.000Z,25.31
2022-08-17T08:15:41.000Z,25.31
2022-08-17T08:16:41.000Z,25.38
2022-08-17T08:17:41.000Z,25.43
2022-08-17T08:18:41.000Z,25.46
2022-08-17T08:19:41.000Z,25.47
2022-08-17T08:20:41.000Z,25.54
2022-08-17T08:21:41.000Z,25.61
2022-08-17T08:22:41.000Z,25.67
2022-08-17T08:23:40.000Z,25.71
2022-08-17T08:24:40.000Z,25.77
2022-08-17T08:25:40.000Z,25.84
2022-08-17T08:26:40.000Z,25.91
2022-08-17T08:27:40.000Z,26.01
2022-08-17T08:28:40.000Z,26.04
2022-08-17T08:29:40.000Z,26.11
2022-08-17T08:30:40.000Z,26.11
2022-08-17T08:31:40.000Z,26.21
2022-08-17T08:31:40.000Z,26.21
2022-08-17T08:32:40.000Z,26.20
2022-08-17T08:32:40.000Z,26.20
2022-08-17T08:33:40.000Z,26.21
2022-08-17T08:33:40.000Z,26.21
2022-08-17T08:34:40.000Z,26.21
2022-08-17T08:34:40.000Z,26.21
2022-08-17T08:35:40.000Z,26.21
2022-08-17T08:35:40.000Z,26.21
2022-08-17T08:36:40.000Z,26.27
2022-08-17T08:37:40.000Z,26.31
2022-08-17T08:38:40.000Z,26.42
2022-08-17T08:39:40.000Z,26.44
2022-08-17T08:40:40.000Z,26.47
2022-08-17T08:41:39.000Z,26.46
2022-08-17T08:42:39.000Z,26.52
2022-08-17T08:43:39.000Z,26.49
2022-08-17T08:44:39.000Z,26.52
2022-08-17T08:45:39.000Z,26.57
2022-08-17T08:46:39.000Z,26.64
2022-08-17T08:47:39.000Z,26.74
2022-08-17T08:48:39.000Z,26.79
2022-08-17T08:49:39.000Z,26.81
2022-08-17T08:50:39.000Z,26.89
2022-08-17T08:51:39.000Z,27.02
2022-08-17T08:51:39.000Z,27.02
2022-08-17T08:52:39.000Z,27.09
2022-08-17T08:52:39.000Z,27.09
2022-08-17T08:53:39.000Z,27.16
2022-08-17T08:53:39.000Z,27.16
2022-08-17T08:54:39.000Z,27.24
2022-08-17T08:54:39.000Z,27.24
2022-08-17T08:55:39.000Z,27.26
2022-08-17T08:55:39.000Z,27.26
2022-08-17T08:56:39.000Z,27.32
2022-08-17T08:57:39.000Z,27.33
2022-08-17T08:58:38.000Z,27.38
2022-08-17T08:59:38.000Z,27.39
2022-08-17T09:00:38.000Z,27.51
2022-08-17T09:01:38.000Z,27.62
2022-08-17T09:02:38.000Z,27.70
2022-08-17T09:03:38.000Z,27.77
2022-08-17T09:04:38.000Z,27.82
2022-08-17T09:05:38.000Z,27.85
2022-08-17T09:06:38.000Z,27.92
2022-08-17T09:06:38.000Z,27.92
2022-08-17T09:07:38.000Z,27.92
2022-08-17T09:07:38.000Z,27.92
2022-08-17T09:08:38.000Z,27.98
2022-08-17T09:08:38.000Z,27.98
2022-08-17T09:09:38.000Z,27.98
2022-08-17T09:09:38.000Z,27.98
2022-08-17T09:10:38.000Z,28.01
2022-08-17T09:10:38.000Z,28.01
2022-08-17T09:11:38.000Z,28.10
2022-08-17T09:12:37.000Z,28.13
2022-08-17T09:13:37.000Z,28.23
2022-08-17T09:14:37.000Z,28.26
2022-08-17T09:15:37.000Z,28.28
2022-08-17T09:16:37.000Z,28.29
2022-08-17T09:17:37.000Z,28.28
2022-08-17T09:18:37.000Z,28.31
2022-08-17T09:19:37.000Z,28.32
2022-08-17T09:20:37.000Z,28.40
2022-08-17T09:21:37.000Z,28.44
2022-08-17T09:22:37.000Z,28.51
2022-08-17T09:23:37.000Z,28.59
2022-08-17T09:24:37.000Z,28.65
2022-08-17T09:25:37.000Z,28.73
2022-08-17T09:26:36.000Z,28.77
2022-08-17T09:26:36.000Z,28.77
2022-08-17T09:27:36.000Z,28.82
2022-08-17T09:27:36.000Z,28.82
2022-08-17T09:28:36.000Z,28.87
2022-08-17T09:28:36.000Z,28.87
2022-08-17T09:29:36.000Z,28.88
2022-08-17T09:29:36.000Z,28.88
2022-08-17T09:30:36.000Z,28.85
2022-08-17T09:30:36.000Z,28.85
2022-08-17T09:31:36.000Z,28.82
2022-08-17T09:32:36.000Z,28.80
2022-08-17T09:33:36.000Z,28.72
2022-08-17T09:34:36.000Z,28.66
2022-08-17T09:35:36.000Z,28.69
2022-08-17T09:36:36.000Z,28.65
2022-08-17T09:36:36.000Z,28.65
2022-08-17T09:37:36.000Z,28.63
2022-08-17T09:37:36.000Z,28.63
2022-08-17T09:38:36.000Z,28.65
2022-08-17T09:38:36.000Z,28.65
2022-08-17T09:39:35.000Z,28.69
2022-08-17T09:39:35.000Z,28.69
2022-08-17T09:40:35.000Z,28.73
2022-08-17T09:40:35.000Z,28.73
2022-08-17T09:41:35.000Z,28.77
2022-08-17T09:42:35.000Z,28.82
2022-08-17T09:43:35.000Z,28.88
2022-08-17T09:44:35.000Z,28.93
2022-08-17T09:45:35.000Z,29.01
2022-08-17T09:46:35.000Z,29.04
2022-08-17T09:47:35.000Z,29.18
2022-08-17T09:48:35.000Z,29.20
2022-08-17T09:49:35.000Z,29.19
2022-08-17T09:50:35.000Z,29.20
2022-08-17T09:51:34.000Z,29.18
2022-08-17T09:52:34.000Z,29.19
2022-08-17T09:53:34.000Z,29.29
2022-08-17T09:54:34.000Z,29.38
2022-08-17T09:55:34.000Z,29.44
2022-08-17T09:56:34.000Z,29.50
2022-08-17T09:57:34.000Z,29.59
2022-08-17T09:58:34.000Z,29.62
2022-08-17T09:59:34.000Z,29.66
2022-08-17T10:00:34.000Z,29.60
2022-08-17T10:01:34.000Z,29.57
2022-08-17T10:02:34.000Z,29.53
2022-08-17T10:03:33.000Z,29.50
2022-08-17T10:04:33.000Z,29.47
2022-08-17T10:05:33.000Z,29.52
2022-08-17T10:06:33.000Z,29.57
2022-08-17T10:07:33.000Z,29.70
2022-08-17T10:08:33.000Z,29.86
2022-08-17T10:09:33.000Z,29.92
2022-08-17T10:10:33.000Z,29.96
2022-08-17T10:11:33.000Z,29.97
2022-08-17T10:12:33.000Z,29.99
2022-08-17T10:13:33.000Z,29.99
2022-08-17T10:14:33.000Z,30.00
2022-08-17T10:15:32.000Z,30.07
2022-08-17T10:16:32.000Z,30.12
2022-08-17T10:17:32.000Z,30.11
2022-08-17T10:18:32.000Z,30.14
2022-08-17T10:19:32.000Z,30.12
2022-08-17T10:20:32.000Z,30.14
2022-08-17T10:21:32.000Z,30.18
2022-08-17T10:21:32.000Z,30.18
2022-08-17T10:22:32.000Z,30.15
2022-08-17T10:22:32.000Z,30.15
2022-08-17T10:23:32.000Z,30.12
2022-08-17T10:23:32.000Z,30.12
2022-08-17T10:24:32.000Z,30.09
2022-08-17T10:24:32.000Z,30.09
2022-08-17T10:25:32.000Z,30.09
2022-08-17T10:26:47.000Z,30.14
2022-08-17T10:27:31.000Z,30.21
2022-08-17T10:28:31.000Z,30.23
2022-08-17T10:29:31.000Z,30.18
2022-08-17T10:30:31.000Z,30.11
2022-08-17T10:31:31.000Z,30.09
2022-08-17T10:32:31.000Z,30.15
2022-08-17T10:33:31.000Z,30.15
2022-08-17T10:34:31.000Z,30.11
2022-08-17T10:35:31.000Z,30.11
2022-08-17T10:36:31.000Z,30.03
2022-08-17T10:37:30.000Z,30.03
2022-08-17T10:38:30.000Z,30.02
2022-08-17T10:39:30.000Z,29.99
2022-08-17T10:40:30.000Z,29.99
2022-08-17T10:41:30.000Z,29.99
2022-08-17T10:42:30.000Z,30.03
2022-08-17T10:43:30.000Z,30.03
2022-08-17T10:44:30.000Z,30.02
2022-08-17T10:45:30.000Z,30.12
2022-08-17T10:46:30.000Z,30.14
2022-08-17T10:47:30.000Z,30.14
2022-08-17T10:48:29.000Z,30.19
2022-08-17T10:49:29.000Z,30.23
2022-08-17T10:50:29.000Z,30.23
2022-08-17T10:51:29.000Z,30.30
2022-08-17T10:52:29.000Z,30.36
2022-08-17T10:53:29.000Z,30.40
2022-08-17T10:54:29.000Z,30.38
2022-08-17T10:55:29.000Z,30.40
2022-08-17T10:56:29.000Z,30.37
2022-08-17T10:57:29.000Z,30.34
2022-08-17T10:58:29.000Z,30.30
2022-08-17T10:59:28.000Z,30.30
2022-08-17T11:00:28.000Z,30.31
2022-08-17T11:01:28.000Z,30.31
2022-08-17T11:02:28.000Z,30.30
2022-08-17T11:03:28.000Z,30.30
2022-08-17T11:04:28.000Z,30.33
2022-08-17T11:05:28.000Z,30.40
2022-08-17T11:06:28.000Z,30.38
2022-08-17T11:07:28.000Z,30.45
2022-08-17T11:08:28.000Z,30.45
2022-08-17T11:09:28.000Z,30.40
2022-08-17T11:10:27.000Z,30.43
2022-08-17T11:11:27.000Z,30.43
2022-08-17T11:12:27.000Z,30.43
2022-08-17T11:13:27.000Z,30.46
2022-08-17T11:14:27.000Z,30.47
2022-08-17T11:15:27.000Z,30.50
2022-08-17T11:16:27.000Z,30.50
2022-08-17T11:17:27.000Z,30.47
2022-08-17T11:18:27.000Z,30.49
2022-08-17T11:19:27.000Z,30.52
2022-08-17T11:20:27.000Z,30.50
2022-08-17T11:21:27.000Z,30.56
2022-08-17T11:22:26.000Z,30.61
2022-08-17T11:23:26.000Z,30.65
2022-08-17T11:24:26.000Z,30.68
2022-08-17T11:25:26.000Z,30.69
2022-08-17T11:26:26.000Z,30.75
2022-08-17T11:26:26.000Z,30.75
2022-08-17T11:27:26.000Z,30.76
2022-08-17T11:27:26.000Z,30.76
2022-08-17T11:28:26.000Z,30.78
2022-08-17T11:28:26.000Z,30.78
2022-08-17T11:29:26.000Z,30.81
2022-08-17T11:29:26.000Z,30.81
2022-08-17T11:30:26.000Z,30.90
2022-08-17T11:30:26.000Z,30.90
2022-08-17T11:31:26.000Z,30.91
2022-08-17T11:32:26.000Z,30.96
2022-08-17T11:33:25.000Z,30.98
2022-08-17T11:34:25.000Z,31.02
2022-08-17T11:35:25.000Z,31.08
2022-08-17T11:36:25.000Z,31.06
2022-08-17T11:37:25.000Z,31.08
2022-08-17T11:38:25.000Z,31.09